Time;durP1;ratioP1;P1;durP2;ratioP2;P2;SDS_P1;SDS_P2;PMS_P1;PMS_P2;Temp;Humidity;BMP_temperature;BMP_pressure;BME280_temperature;BME280_humidity;BME280_pressure;Samples;Min_cycle;Max_cycle;Signal;HPM_P1;HPM_P2
2022/08/24 00:00:20;;;;;;;9.98;4.57;;;;;;;;;;5077205;28;20056;-69
2022/08/24 00:02:54;;;;;;;10.73;4.40;;;;;;;;;;5044341;28;20507;-69
2022/08/24 00:05:24;;;;;;;12.82;4.80;;;;;;;;;;5093205;28;20048;-69
2022/08/24 00:07:54;;;;;;;10.05;5.22;;;;;;;;;;5056612;28;20057;-69
2022/08/24 00:10:25;;;;;;;12.55;4.50;;;;;;;;;;5039537;28;20048;-69
2022/08/24 00:12:57;;;;;;;12.18;5.15;;;;;;;;;;5073022;28;20524;-69
2022/08/24 00:15:27;;;;;;;10.10;4.90;;;;;;;;;;5072633;28;20095;-68
2022/08/24 00:17:57;;;;;;;12.63;4.15;;;;;;;;;;4996347;28;20425;-68
2022/08/24 00:20:29;;;;;;;14.68;4.97;;;;;;;;;;4945175;28;20228;-68
2022/08/24 00:22:59;;;;;;;12.85;4.82;;;;;;;;;;4993418;28;20054;-68
2022/08/24 00:25:30;;;;;;;11.75;4.57;;;;;;;;;;4976416;28;20054;-68
2022/08/24 00:28:00;;;;;;;11.38;4.82;;;;;;;;;;4993092;28;20058;-68
2022/08/24 00:30:32;;;;;;;12.98;4.80;;;;;;;;;;4977404;28;20050;-68
2022/08/24 00:33:03;;;;;;;14.60;5.40;;;;;;;;;;4980431;28;20487;-68
2022/08/24 00:35:35;;;;;;;15.23;4.93;;;;;;;;;;4973484;28;20078;-68
2022/08/24 00:38:05;;;;;;;16.35;5.15;;;;;;;;;;4992843;28;20479;-68
2022/08/24 00:40:40;;;;;;;12.23;5.00;;;;;;;;;;4992791;28;20066;-68
2022/08/24 00:43:11;;;;;;;13.45;4.82;;;;;;;;;;4960900;28;20054;-69
2022/08/24 00:45:47;;;;;;;14.10;5.45;;;;;;;;;;4960160;28;20525;-70
2022/08/24 00:48:24;;;;;;;14.35;5.45;;;;;;;;;;4992839;28;20054;-69
2022/08/24 00:51:00;;;;;;;12.77;5.22;;;;;;;;;;4992550;28;20062;-70
2022/08/24 00:53:47;;;;;;;12.40;5.05;;;;;;;;;;4973267;28;20071;-69
2022/08/24 00:56:24;;;;;;;13.73;5.13;;;;;;;;;;5002482;28;20054;-71
2022/08/24 00:59:00;;;;;;;10.88;5.22;;;;;;;;;;4999765;28;20379;-71
2022/08/24 01:01:32;;;;;;;17.55;5.35;;;;;;;;;;4992719;28;20050;-70
2022/08/24 01:04:04;;;;;;;;;;;;;;;;;;5009889;28;20101;-70
2022/08/24 01:06:34;;;;;;;13.85;5.07;;;;;;;;;;5012203;28;19921;-71
2022/08/24 01:09:05;;;;;;;13.40;5.43;;;;;;;;;;5031899;28;20049;-71
2022/08/24 01:11:38;;;;;;;12.60;5.28;;;;;;;;;;5016612;28;20060;-71
2022/08/24 01:14:08;;;;;;;16.08;5.72;;;;;;;;;;5051770;28;20138;-70
2022/08/24 01:19:41;;;;;;;14.48;4.93;;;;;;;;;;5028486;28;20049;-71
2022/08/24 01:22:26;;;;;;;22.90;5.80;;;;;;;;;;5031559;28;20054;-71
2022/08/24 01:24:57;;;;;;;12.25;5.22;;;;;;;;;;5031740;28;20056;-71
2022/08/24 01:27:28;;;;;;;13.10;5.28;;;;;;;;;;5011527;28;20492;-71
2022/08/24 01:30:01;;;;;;;12.63;5.13;;;;;;;;;;4995964;28;20061;-71
2022/08/24 01:32:30;;;;;;;;;;;;;;;;;;5012329;28;20405;-71
2022/08/24 01:35:01;;;;;;;14.05;5.32;;;;;;;;;;5011736;28;19921;-71
2022/08/24 01:37:32;;;;;;;14.40;5.75;;;;;;;;;;5002301;28;20406;-71
2022/08/24 01:40:06;;;;;;;12.93;5.57;;;;;;;;;;4991518;28;20054;-71
2022/08/24 01:42:36;;;;;;;11.82;4.75;;;;;;;;;;4992158;28;20062;-71
2022/08/24 01:45:07;;;;;;;13.00;4.85;;;;;;;;;;4991919;28;20050;-72
2022/08/24 01:47:38;;;;;;;16.05;4.72;;;;;;;;;;4991802;28;20057;-72
2022/08/24 01:50:09;;;;;;;11.38;5.22;;;;;;;;;;4991964;28;20055;-71
2022/08/24 01:52:43;;;;;;;11.10;5.03;;;;;;;;;;4991781;28;20062;-71
2022/08/24 01:55:33;;;;;;;;;;;;;;;;;;5011795;28;20061;-71
2022/08/24 01:58:04;;;;;;;14.57;4.88;;;;;;;;;;4958973;28;19929;-71
2022/08/24 02:00:36;;;;;;;11.85;4.95;;;;;;;;;;4917766;29;20047;-71
2022/08/24 02:03:07;;;;;;;13.38;5.32;;;;;;;;;;4933825;29;20479;-71
2022/08/24 02:05:39;;;;;;;20.38;5.07;;;;;;;;;;4952663;29;20070;-70
2022/08/24 02:08:15;;;;;;;12.77;5.30;;;;;;;;;;4936588;29;20066;-71
2022/08/24 02:10:47;;;;;;;16.85;5.60;;;;;;;;;;4937392;29;20055;-71
2022/08/24 02:13:27;;;;;;;12.15;5.30;;;;;;;;;;4952280;28;20052;-71
2022/08/24 02:15:59;;;;;;;10.68;5.53;;;;;;;;;;4936317;29;20385;-71
2022/08/24 02:18:35;;;;;;;11.75;4.97;;;;;;;;;;4933507;29;20051;-71
2022/08/24 02:21:08;;;;;;;12.10;5.00;;;;;;;;;;4952559;28;20054;-70
2022/08/24 02:23:40;;;;;;;16.40;5.05;;;;;;;;;;4952444;28;20055;-70
2022/08/24 02:26:11;;;;;;;;;;;;;;;;;;4952985;28;20063;-71
2022/08/24 02:28:43;;;;;;;16.77;4.93;;;;;;;;;;4952394;28;20307;-72
2022/08/24 02:31:14;;;;;;;13.35;5.80;;;;;;;;;;4968522;28;20055;-71
2022/08/24 02:33:46;;;;;;;11.80;4.68;;;;;;;;;;4971391;28;20063;-69
2022/08/24 02:36:16;;;;;;;12.48;4.90;;;;;;;;;;4980214;28;20086;-70
2022/08/24 02:38:59;;;;;;;15.10;4.70;;;;;;;;;;4929181;29;20070;-71
2022/08/24 02:41:31;;;;;;;12.80;4.95;;;;;;;;;;4952318;28;20062;-71
2022/08/24 02:44:02;;;;;;;12.90;4.90;;;;;;;;;;4998615;28;20054;-70
2022/08/24 02:46:35;;;;;;;11.52;4.60;;;;;;;;;;5022873;28;20054;-70
2022/08/24 02:49:08;;;;;;;12.63;5.65;;;;;;;;;;5010099;28;20068;-71
2022/08/24 02:51:44;;;;;;;11.48;5.15;;;;;;;;;;4977666;28;20050;-71
2022/08/24 02:54:20;;;;;;;12.63;5.00;;;;;;;;;;5010331;28;20061;-71
2022/08/24 02:56:53;;;;;;;11.85;4.75;;;;;;;;;;4994809;28;20498;-71
2022/08/24 02:59:25;;;;;;;13.70;5.00;;;;;;;;;;4986454;28;20054;-71
2022/08/24 03:01:55;;;;;;;14.35;4.82;;;;;;;;;;5009736;28;20063;-71
2022/08/24 03:04:26;;;;;;;10.85;4.53;;;;;;;;;;5010119;28;20057;-72
2022/08/24 03:06:58;;;;;;;16.83;5.78;;;;;;;;;;5010097;28;20073;-71
2022/08/24 03:09:28;;;;;;;11.43;4.97;;;;;;;;;;4974138;28;20452;-72
2022/08/24 03:11:59;;;;;;;11.98;4.32;;;;;;;;;;4975826;28;20221;-70
2022/08/24 03:14:30;;;;;;;11.00;4.55;;;;;;;;;;4985721;28;20054;-72
2022/08/24 03:17:01;;;;;;;11.98;4.65;;;;;;;;;;4980061;28;20053;-66
2022/08/24 03:19:32;;;;;;;13.48;5.15;;;;;;;;;;5009631;28;20061;-71
2022/08/24 03:22:03;;;;;;;10.85;4.65;;;;;;;;;;4970537;28;20062;-71
2022/08/24 03:24:34;;;;;;;11.25;4.53;;;;;;;;;;4982888;28;20061;-71
2022/08/24 03:27:05;;;;;;;14.57;5.25;;;;;;;;;;4977017;28;20058;-71
2022/08/24 03:29:36;;;;;;;9.55;4.63;;;;;;;;;;4969969;28;20070;-72
2022/08/24 03:32:07;;;;;;;13.02;5.28;;;;;;;;;;4989999;28;20054;-72
2022/08/24 03:34:37;;;;;;;13.18;4.70;;;;;;;;;;4973735;28;20054;-72
2022/08/24 03:37:08;;;;;;;12.52;4.75;;;;;;;;;;5005983;28;20058;-71
2022/08/24 03:39:39;;;;;;;12.45;4.90;;;;;;;;;;4922458;28;20102;-71
2022/08/24 03:42:10;;;;;;;15.95;4.50;;;;;;;;;;4954544;28;20047;-72
2022/08/24 03:44:41;;;;;;;11.82;5.00;;;;;;;;;;4989806;28;20050;-71
2022/08/24 03:47:12;;;;;;;12.45;5.05;;;;;;;;;;4960251;28;20058;-71
2022/08/24 03:49:43;;;;;;;10.27;4.57;;;;;;;;;;4944493;28;20543;-70
2022/08/24 03:52:15;;;;;;;14.38;4.55;;;;;;;;;;4900309;29;20059;-72
2022/08/24 03:54:45;;;;;;;9.50;4.30;;;;;;;;;;4922067;29;20059;-71
2022/08/24 03:57:16;;;;;;;13.10;5.18;;;;;;;;;;4907515;29;20047;-72
2022/08/24 03:59:48;;;;;;;12.43;4.43;;;;;;;;;;4957299;28;20047;-71
2022/08/24 04:02:18;;;;;;;10.23;4.60;;;;;;;;;;4961468;28;20077;-71
2022/08/24 04:04:49;;;;;;;12.60;4.45;;;;;;;;;;4947510;29;20455;-71
2022/08/24 04:07:20;;;;;;;9.18;4.60;;;;;;;;;;4932228;29;20064;-71
2022/08/24 04:09:50;;;;;;;9.52;4.13;;;;;;;;;;4941753;29;20066;-72
2022/08/24 04:12:22;;;;;;;12.95;4.47;;;;;;;;;;4900360;29;20056;-72
2022/08/24 04:14:56;;;;;;;9.02;4.05;;;;;;;;;;4893562;29;20049;-70
2022/08/24 04:17:29;;;;;;;12.05;5.00;;;;;;;;;;4893697;29;20402;-72
2022/08/24 04:20:00;;;;;;;10.13;4.57;;;;;;;;;;4893726;29;20116;-71
2022/08/24 04:22:35;;;;;;;12.63;4.30;;;;;;;;;;4879008;29;20056;-71
2022/08/24 04:25:06;;;;;;;17.05;4.95;;;;;;;;;;4905292;29;20056;-71
2022/08/24 04:27:40;;;;;;;14.85;5.15;;;;;;;;;;4931644;29;20503;-71
2022/08/24 04:30:12;;;;;;;;;;;;;;;;;;4900789;29;20059;-71
2022/08/24 04:33:03;;;;;;;14.43;4.60;;;;;;;;;;4931603;29;19929;-71
2022/08/24 04:35:47;;;;;;;11.43;3.97;;;;;;;;;;4912552;29;20045;-71
2022/08/24 04:38:19;;;;;;;9.82;4.15;;;;;;;;;;4914891;29;20056;-71
2022/08/24 04:41:20;;;;;;;11.45;4.63;;;;;;;;;;4890678;29;20064;-69
2022/08/24 04:44:01;;;;;;;12.95;4.43;;;;;;;;;;4910750;29;20540;-70
2022/08/24 04:46:31;;;;;;;12.35;4.75;;;;;;;;;;4897192;29;20060;-71
2022/08/24 04:49:02;;;;;;;11.02;4.18;;;;;;;;;;4914306;29;20440;-70
2022/08/24 04:51:33;;;;;;;14.75;4.88;;;;;;;;;;4901369;29;20051;-70
2022/08/24 04:54:07;;;;;;;;;;;;;;;;;;4935182;29;20051;-70
2022/08/24 04:56:38;;;;;;;13.85;4.95;;;;;;;;;;4956743;28;19929;-70
2022/08/24 04:59:09;;;;;;;9.55;4.18;;;;;;;;;;4972737;28;20062;-70
2022/08/24 05:01:41;;;;;;;14.25;4.85;;;;;;;;;;4924907;28;20233;-70
2022/08/24 05:04:13;;;;;;;13.75;4.65;;;;;;;;;;4941117;28;20471;-70
2022/08/24 05:06:43;;;;;;;12.40;4.97;;;;;;;;;;4934224;29;20054;-70
2022/08/24 05:09:13;;;;;;;10.18;4.45;;;;;;;;;;4934620;29;20547;-71
2022/08/24 05:11:45;;;;;;;8.52;3.70;;;;;;;;;;4934188;29;20055;-70
2022/08/24 05:14:23;;;;;;;10.27;3.60;;;;;;;;;;4884528;29;20440;-70
2022/08/24 05:16:56;;;;;;;10.25;4.35;;;;;;;;;;4896371;29;20056;-70
2022/08/24 05:19:27;;;;;;;7.28;3.50;;;;;;;;;;4847291;29;20052;-71
2022/08/24 05:21:57;;;;;;;9.25;3.88;;;;;;;;;;4866325;29;20075;-70
2022/08/24 05:24:28;;;;;;;8.18;3.90;;;;;;;;;;4840313;29;20050;-70
2022/08/24 05:26:59;;;;;;;8.25;3.58;;;;;;;;;;4840812;29;20066;-71
2022/08/24 05:29:32;;;;;;;10.55;4.15;;;;;;;;;;4825977;29;20424;-71
2022/08/24 05:32:04;;;;;;;8.85;3.65;;;;;;;;;;4833141;29;20062;-70
2022/08/24 05:34:35;;;;;;;10.35;4.18;;;;;;;;;;4829781;29;20054;-69
2022/08/24 05:37:05;;;;;;;8.48;3.75;;;;;;;;;;4874499;29;20211;-71
2022/08/24 05:39:45;;;;;;;7.55;3.28;;;;;;;;;;4877196;29;20466;-71
2022/08/24 05:42:16;;;;;;;8.05;3.50;;;;;;;;;;4877466;29;20057;-70
2022/08/24 05:44:48;;;;;;;7.65;3.45;;;;;;;;;;4912085;29;20489;-71
2022/08/24 05:47:21;;;;;;;8.02;3.55;;;;;;;;;;4914743;29;20056;-71
2022/08/24 05:49:53;;;;;;;8.10;3.70;;;;;;;;;;4911329;29;20428;-72
2022/08/24 05:52:24;;;;;;;9.93;3.92;;;;;;;;;;4917070;29;20479;-71
2022/08/24 05:54:57;;;;;;;7.50;3.08;;;;;;;;;;4952608;29;20047;-72
2022/08/24 05:57:33;;;;;;;10.05;3.47;;;;;;;;;;4933506;29;20605;-71
2022/08/24 06:00:18;;;;;;;8.07;3.08;;;;;;;;;;4933966;29;20104;-72
2022/08/24 06:02:51;;;;;;;9.50;3.88;;;;;;;;;;4902351;29;20060;-71
2022/08/24 06:05:22;;;;;;;6.75;3.50;;;;;;;;;;4883376;29;20441;-70
2022/08/24 06:07:52;;;;;;;7.38;3.33;;;;;;;;;;4915043;29;20060;-71
2022/08/24 06:10:23;;;;;;;12.15;3.40;;;;;;;;;;4868715;29;20060;-71
2022/08/24 06:13:10;;;;;;;8.52;3.83;;;;;;;;;;4895723;29;20146;-71
2022/08/24 06:15:42;;;;;;;8.07;3.38;;;;;;;;;;4946609;28;20051;-71
2022/08/24 06:18:32;;;;;;;7.50;3.53;;;;;;;;;;4933344;29;20052;-71
2022/08/24 06:21:09;;;;;;;;;;;;;;;;;;4929942;29;20052;-71
2022/08/24 06:23:43;;;;;;;9.73;3.28;;;;;;;;;;4914741;29;19923;-69
2022/08/24 06:29:04;;;;;;;7.82;3.05;;;;;;;;;;4914098;29;20496;-70
2022/08/24 06:31:44;;;;;;;7.70;3.45;;;;;;;;;;4933080;29;20056;-71
2022/08/24 06:34:17;;;;;;;10.73;3.78;;;;;;;;;;4941428;28;20054;-72
2022/08/24 06:36:48;;;;;;;8.38;3.15;;;;;;;;;;4958520;28;20061;-71
2022/08/24 06:39:22;;;;;;;12.10;3.35;;;;;;;;;;4975439;28;20099;-71
2022/08/24 06:41:55;;;;;;;9.27;3.80;;;;;;;;;;4971219;28;20051;-70
2022/08/24 06:44:33;;;;;;;9.65;3.45;;;;;;;;;;4971475;28;20442;-71
2022/08/24 06:47:11;;;;;;;9.77;3.70;;;;;;;;;;4968187;28;20050;-71
2022/08/24 06:49:41;;;;;;;7.20;3.22;;;;;;;;;;4936211;29;20169;-72
2022/08/24 06:52:12;;;;;;;7.80;3.30;;;;;;;;;;4919855;29;20707;-71
2022/08/24 06:54:43;;;;;;;7.95;3.58;;;;;;;;;;4952076;29;20059;-71
2022/08/24 06:57:13;;;;;;;6.75;3.13;;;;;;;;;;4951868;29;20416;-71
2022/08/24 06:59:44;;;;;;;7.30;3.03;;;;;;;;;;4967482;28;20062;-72
2022/08/24 07:02:17;;;;;;;9.85;3.45;;;;;;;;;;4956699;28;20414;-71
2022/08/24 07:04:48;;;;;;;10.23;3.60;;;;;;;;;;4951671;29;20565;-72
2022/08/24 07:07:37;;;;;;;8.25;3.17;;;;;;;;;;4952291;28;20055;-71
2022/08/24 07:10:09;;;;;;;7.78;3.00;;;;;;;;;;4951621;29;20063;-71
2022/08/24 07:12:40;;;;;;;8.80;3.45;;;;;;;;;;4898350;29;20063;-69
2022/08/24 07:15:18;;;;;;;6.82;3.17;;;;;;;;;;4967321;28;20070;-70
2022/08/24 07:18:00;;;;;;;7.15;3.15;;;;;;;;;;4965583;28;20048;-71
2022/08/24 07:20:30;;;;;;;9.73;3.65;;;;;;;;;;4938731;28;20051;-70
2022/08/24 07:23:13;;;;;;;8.40;3.40;;;;;;;;;;4951615;28;20055;-70
2022/08/24 07:25:45;;;;;;;11.23;3.60;;;;;;;;;;4985058;28;20065;-71
2022/08/24 07:28:21;;;;;;;12.80;3.40;;;;;;;;;;4973988;28;20050;-71
2022/08/24 07:31:01;;;;;;;7.75;3.47;;;;;;;;;;4938765;28;20515;-69
2022/08/24 07:33:37;;;;;;;9.27;3.88;;;;;;;;;;4970610;28;20593;-71
2022/08/24 07:36:09;;;;;;;8.63;3.35;;;;;;;;;;4951197;28;20055;-70
2022/08/24 07:38:47;;;;;;;10.55;4.03;;;;;;;;;;4919753;29;20582;-71
2022/08/24 07:41:19;;;;;;;9.18;3.72;;;;;;;;;;4970271;28;20066;-69
2022/08/24 07:44:12;;;;;;;9.77;3.97;;;;;;;;;;4951215;28;20062;-70
2022/08/24 07:46:43;;;;;;;8.32;3.72;;;;;;;;;;4949251;28;20058;-71
2022/08/24 07:49:15;;;;;;;8.63;3.58;;;;;;;;;;4913163;29;20435;-71
2022/08/24 07:52:06;;;;;;;9.68;3.40;;;;;;;;;;4931734;29;20517;-71
2022/08/24 07:54:36;;;;;;;9.25;3.58;;;;;;;;;;4951162;28;20051;-70
2022/08/24 07:57:07;;;;;;;9.25;3.30;;;;;;;;;;4935031;29;20055;-70
2022/08/24 07:59:38;;;;;;;7.47;3.03;;;;;;;;;;4912776;29;20048;-71
2022/08/24 08:02:10;;;;;;;7.15;2.95;;;;;;;;;;4877924;29;20063;-70
2022/08/24 08:04:46;;;;;;;7.82;3.17;;;;;;;;;;4931749;29;20051;-70
2022/08/24 08:07:17;;;;;;;8.50;3.20;;;;;;;;;;4893956;29;20048;-70
2022/08/24 08:09:49;;;;;;;7.28;3.17;;;;;;;;;;4931029;29;20052;-70
2022/08/24 08:12:20;;;;;;;6.93;3.08;;;;;;;;;;4942335;28;20047;-70
2022/08/24 08:14:56;;;;;;;8.63;3.53;;;;;;;;;;4920476;29;20051;-70
2022/08/24 08:17:27;;;;;;;6.95;3.42;;;;;;;;;;4920404;29;20059;-70
2022/08/24 08:19:57;;;;;;;8.35;3.60;;;;;;;;;;4954430;28;20052;-70
2022/08/24 08:25:53;;;;;;;7.53;3.10;;;;;;;;;;4955110;28;20055;-70
2022/08/24 08:28:34;;;;;;;8.15;3.17;;;;;;;;;;4954295;28;20062;-69
2022/08/24 08:31:05;;;;;;;10.25;3.28;;;;;;;;;;4972333;28;20065;-69
2022/08/24 08:33:36;;;;;;;7.25;3.22;;;;;;;;;;4954197;28;20057;-70
2022/08/24 08:36:17;;;;;;;8.63;3.38;;;;;;;;;;4954087;28;20388;-71
2022/08/24 08:38:50;;;;;;;7.72;3.20;;;;;;;;;;4920664;29;20434;-70
2022/08/24 08:41:53;;;;;;;8.00;3.40;;;;;;;;;;4936238;29;20061;-71
2022/08/24 08:44:49;;;;;;;6.95;2.67;;;;;;;;;;4959525;28;20681;-71
2022/08/24 08:47:52;;;;;;;9.68;3.45;;;;;;;;;;4981543;28;20050;-71
2022/08/24 08:50:49;;;;;;;7.60;3.08;;;;;;;;;;4996031;28;20045;-71
2022/08/24 08:53:38;;;;;;;8.57;3.70;;;;;;;;;;5012192;28;20580;-71
2022/08/24 08:56:16;;;;;;;9.60;3.38;;;;;;;;;;5008475;28;20055;-70
2022/08/24 08:59:32;;;;;;;12.45;3.75;;;;;;;;;;4953903;28;20067;-70
2022/08/24 09:02:16;;;;;;;9.00;3.75;;;;;;;;;;4934909;28;20048;-70
2022/08/24 09:05:36;;;;;;;7.20;3.25;;;;;;;;;;4934520;29;20059;-70
2022/08/24 09:08:31;;;;;;;10.05;3.60;;;;;;;;;;4961140;28;20404;-71
2022/08/24 09:11:23;;;;;;;8.48;3.20;;;;;;;;;;4941564;28;20066;-70
2022/08/24 09:14:09;;;;;;;7.05;3.03;;;;;;;;;;4992277;28;20050;-70
2022/08/24 09:16:48;;;;;;;9.13;3.40;;;;;;;;;;4989257;28;20070;-71
2022/08/24 09:19:57;;;;;;;7.45;3.15;;;;;;;;;;4959272;28;20054;-70
2022/08/24 09:22:28;;;;;;;10.45;3.55;;;;;;;;;;4956300;28;20062;-71
2022/08/24 09:25:11;;;;;;;9.35;3.05;;;;;;;;;;4944059;28;20093;-70
2022/08/24 09:28:09;;;;;;;9.38;2.97;;;;;;;;;;4907928;29;20055;-71
2022/08/24 09:31:00;;;;;;;8.88;3.50;;;;;;;;;;4960496;28;20070;-71
2022/08/24 09:33:37;;;;;;;7.70;2.72;;;;;;;;;;4979870;28;20058;-71
2022/08/24 09:36:33;;;;;;;7.82;3.03;;;;;;;;;;4991964;28;20585;-70
2022/08/24 09:39:39;;;;;;;7.68;2.65;;;;;;;;;;4987415;28;20063;-71
2022/08/24 09:42:18;;;;;;;6.75;2.95;;;;;;;;;;4972540;28;20061;-70
2022/08/24 09:45:19;;;;;;;8.75;3.38;;;;;;;;;;4938527;28;20055;-70
2022/08/24 09:47:55;;;;;;;7.53;2.85;;;;;;;;;;4955749;28;20058;-70
2022/08/24 09:50:46;;;;;;;7.75;3.10;;;;;;;;;;4924692;28;20062;-71
2022/08/24 09:53:24;;;;;;;10.35;4.25;;;;;;;;;;4940203;28;20051;-70
2022/08/24 09:56:23;;;;;;;11.13;4.90;;;;;;;;;;4973777;28;20392;-70
2022/08/24 09:59:23;;;;;;;8.98;4.68;;;;;;;;;;4977835;28;20057;-70
2022/08/24 10:02:06;;;;;;;10.45;4.72;;;;;;;;;;5071574;28;20139;-70
2022/08/24 10:04:49;;;;;;;9.43;4.63;;;;;;;;;;5105202;28;20056;-70
2022/08/24 10:07:45;;;;;;;8.13;3.90;;;;;;;;;;5073243;28;20041;-70
2022/08/24 10:10:56;;;;;;;10.65;3.90;;;;;;;;;;5073260;28;20414;-70
2022/08/24 10:13:50;;;;;;;9.30;3.88;;;;;;;;;;5070815;28;20060;-70
2022/08/24 10:16:35;;;;;;;9.65;3.33;;;;;;;;;;4975524;28;20050;-70
2022/08/24 10:19:21;;;;;;;9.65;3.50;;;;;;;;;;4991505;28;20055;-70
2022/08/24 10:22:24;;;;;;;10.07;4.32;;;;;;;;;;4991369;28;20099;-70
2022/08/24 10:25:07;;;;;;;10.82;3.90;;;;;;;;;;4991138;28;20545;-70
2022/08/24 10:27:57;;;;;;;8.25;3.78;;;;;;;;;;4975608;28;20054;-70
2022/08/24 10:30:46;;;;;;;10.25;4.10;;;;;;;;;;4991250;28;20069;-70
2022/08/24 10:33:25;;;;;;;17.35;3.85;;;;;;;;;;4991120;28;20054;-70
2022/08/24 10:36:41;;;;;;;8.75;3.58;;;;;;;;;;4958641;28;20054;-69
2022/08/24 10:45:30;;;;;;;12.60;4.45;;;;;;;;;;4954022;28;20059;-70
2022/08/24 10:48:31;;;;;;;13.65;3.92;;;;;;;;;;4952338;29;20066;-70
2022/08/24 10:51:08;;;;;;;14.18;4.72;;;;;;;;;;4971084;28;20047;-70
2022/08/24 10:53:39;;;;;;;9.27;4.32;;;;;;;;;;5007209;28;20512;-70
2022/08/24 10:56:18;;;;;;;13.32;4.13;;;;;;;;;;5049970;28;20057;-70
2022/08/24 10:59:15;;;;;;;9.35;3.58;;;;;;;;;;5033382;28;20057;-69
2022/08/24 11:02:09;;;;;;;14.60;4.22;;;;;;;;;;5049743;28;20052;-69
2022/08/24 11:04:43;;;;;;;13.43;3.80;;;;;;;;;;5050010;28;20056;-69
2022/08/24 11:07:19;;;;;;;10.13;4.35;;;;;;;;;;5049692;28;20053;-69
2022/08/24 11:09:57;;;;;;;11.15;4.22;;;;;;;;;;5049512;28;20053;-69
2022/08/24 11:12:41;;;;;;;10.25;4.70;;;;;;;;;;5016956;28;20158;-69
2022/08/24 11:15:18;;;;;;;9.63;4.18;;;;;;;;;;5049594;28;20061;-69
2022/08/24 11:18:02;;;;;;;13.32;4.30;;;;;;;;;;5067588;28;20053;-69
2022/08/24 11:20:48;;;;;;;11.85;5.78;;;;;;;;;;5036677;28;20048;-69
2022/08/24 11:23:34;;;;;;;12.10;5.43;;;;;;;;;;5069261;28;20052;-68
2022/08/24 11:26:20;;;;;;;8.93;4.93;;;;;;;;;;5069518;28;20056;-68
2022/08/24 11:28:56;;;;;;;11.65;5.32;;;;;;;;;;5047695;28;20055;-67
2022/08/24 11:31:33;;;;;;;12.20;5.75;;;;;;;;;;5089772;28;20052;-68
2022/08/24 11:34:32;;;;;;;10.52;4.35;;;;;;;;;;5089570;28;20527;-67
2022/08/24 11:37:04;;;;;;;12.38;4.72;;;;;;;;;;5070883;28;20420;-67
2022/08/24 11:39:37;;;;;;;10.95;4.35;;;;;;;;;;5056394;28;20056;-67
2022/08/24 11:42:17;;;;;;;12.32;4.70;;;;;;;;;;5089404;28;20056;-68
2022/08/24 11:45:19;;;;;;;7.32;3.80;;;;;;;;;;5072499;28;20056;-68
2022/08/24 11:47:53;;;;;;;8.43;4.15;;;;;;;;;;5091291;28;20060;-68
2022/08/24 11:50:34;;;;;;;13.63;5.88;;;;;;;;;;5076728;28;20047;-68
2022/08/24 11:53:10;;;;;;;12.05;4.95;;;;;;;;;;5076604;28;20071;-69
2022/08/24 11:55:57;;;;;;;13.05;5.50;;;;;;;;;;5093248;28;20091;-69
2022/08/24 11:58:59;;;;;;;9.68;4.88;;;;;;;;;;5073058;28;20049;-69
2022/08/24 12:01:59;;;;;;;13.02;6.05;;;;;;;;;;5044074;28;20058;-69
2022/08/24 12:04:49;;;;;;;19.25;7.82;;;;;;;;;;5033209;28;20129;-69
2022/08/24 12:07:30;;;;;;;18.27;7.63;;;;;;;;;;5033130;28;20062;-69
2022/08/24 12:10:20;;;;;;;18.67;8.05;;;;;;;;;;5052867;28;20057;-69
2022/08/24 12:12:57;;;;;;;;;;;;;;;;;;5053387;28;20057;-69
2022/08/24 12:15:30;;;;;;;14.85;6.47;;;;;;;;;;5019571;28;20272;-70
2022/08/24 12:18:11;;;;;;;13.43;6.40;;;;;;;;;;5019739;28;20053;-69
2022/08/24 12:20:45;;;;;;;14.85;6.10;;;;;;;;;;5052759;28;20057;-69
2022/08/24 12:23:23;;;;;;;9.85;5.40;;;;;;;;;;5003447;28;20526;-69
2022/08/24 12:26:11;;;;;;;10.30;5.03;;;;;;;;;;5036502;28;20045;-70
2022/08/24 12:28:49;;;;;;;5.68;2.67;;;;;;;;;;5037204;28;20056;-70
2022/08/24 12:32:14;;;;;;;10.88;3.60;;;;;;;;;;5005534;28;20067;-70
2022/08/24 12:35:13;;;;;;;5.97;2.53;;;;;;;;;;5012816;28;20057;-70
2022/08/24 12:37:58;;;;;;;7.32;3.05;;;;;;;;;;5011272;28;20065;-70
2022/08/24 12:40:52;;;;;;;5.97;3.03;;;;;;;;;;5012515;28;20057;-70
2022/08/24 12:43:51;;;;;;;7.30;2.33;;;;;;;;;;5012782;28;20089;-70
2022/08/24 12:46:25;;;;;;;7.80;2.55;;;;;;;;;;5012892;28;20065;-69
2022/08/24 12:49:06;;;;;;;5.15;1.98;;;;;;;;;;5032469;28;20429;-70
2022/08/24 12:52:09;;;;;;;5.72;2.50;;;;;;;;;;5032000;28;20056;-70
2022/08/24 12:55:09;;;;;;;8.45;2.80;;;;;;;;;;5032401;28;20437;-75
2022/08/24 12:58:05;;;;;;;4.80;2.13;;;;;;;;;;5031932;28;20056;-70
2022/08/24 13:00:57;;;;;;;4.68;2.28;;;;;;;;;;4992576;28;20055;-70
2022/08/24 13:03:38;;;;;;;6.68;3.00;;;;;;;;;;4992888;28;20054;-70
2022/08/24 13:06:25;;;;;;;6.13;2.42;;;;;;;;;;4992937;28;20062;-70
2022/08/24 13:09:14;;;;;;;6.53;2.17;;;;;;;;;;4953837;29;20054;-70
2022/08/24 13:11:46;;;;;;;5.63;2.78;;;;;;;;;;4943877;28;20051;-69
2022/08/24 13:14:25;;;;;;;5.85;2.55;;;;;;;;;;4940862;28;20054;-69
2022/08/24 13:16:56;;;;;;;5.28;2.50;;;;;;;;;;4973379;28;20503;-68
2022/08/24 13:19:41;;;;;;;4.13;2.25;;;;;;;;;;4973043;28;20063;-68
2022/08/24 13:22:14;;;;;;;6.50;2.22;;;;;;;;;;4925343;28;20576;-68
2022/08/24 13:24:47;;;;;;;4.72;2.55;;;;;;;;;;4972840;28;20053;-68
2022/08/24 13:27:18;;;;;;;24.13;10.57;;;;;;;;;;4940589;28;20051;-68
2022/08/24 13:30:05;;;;;;;6.63;2.55;;;;;;;;;;4940662;28;20070;-68
2022/08/24 13:32:38;;;;;;;5.18;2.17;;;;;;;;;;4940814;28;20051;-68
2022/08/24 13:35:35;;;;;;;4.57;2.25;;;;;;;;;;4972749;28;20055;-68
2022/08/24 13:38:37;;;;;;;6.88;2.75;;;;;;;;;;5010265;28;20052;-68
2022/08/24 13:41:23;;;;;;;6.28;2.53;;;;;;;;;;5017849;28;20150;-68
2022/08/24 13:44:22;;;;;;;5.45;2.58;;;;;;;;;;4991798;28;20062;-68
2022/08/24 13:47:18;;;;;;;4.68;2.40;;;;;;;;;;4941044;29;20083;-68
2022/08/24 13:50:27;;;;;;;5.85;2.47;;;;;;;;;;4960615;28;20589;-67
2022/08/24 13:53:30;;;;;;;5.25;2.22;;;;;;;;;;4956359;28;20495;-68
2022/08/24 13:56:19;;;;;;;;;;;;;;;;;;4940937;28;20094;-68
2022/08/24 13:59:32;;;;;;;6.70;2.80;;;;;;;;;;4972074;28;19922;-68
2022/08/24 14:02:35;;;;;;;6.93;2.50;;;;;;;;;;4940133;28;20059;-68
2022/08/24 14:05:28;;;;;;;5.25;2.40;;;;;;;;;;4972348;28;20499;-67
2022/08/24 14:08:32;;;;;;;4.47;2.28;;;;;;;;;;4972275;28;20062;-68
2022/08/24 14:11:18;;;;;;;4.50;2.17;;;;;;;;;;4939177;28;20066;-69
2022/08/24 14:14:05;;;;;;;6.72;2.17;;;;;;;;;;4972117;28;20058;-69
2022/08/24 14:20:13;;;;;;;5.25;2.38;;;;;;;;;;4952650;29;20377;-69
2022/08/24 14:23:05;;;;;;;4.43;2.30;;;;;;;;;;4978194;28;20046;-69
2022/08/24 14:25:37;;;;;;;6.00;2.50;;;;;;;;;;5030995;28;20461;-69
2022/08/24 14:28:39;;;;;;;7.18;2.60;;;;;;;;;;5014026;28;20056;-69
2022/08/24 14:31:28;;;;;;;4.28;2.22;;;;;;;;;;5030560;28;20045;-69
2022/08/24 14:34:25;;;;;;;4.18;2.15;;;;;;;;;;5030546;28;20049;-70
2022/08/24 14:37:04;;;;;;;;;;;;;;;;;;5031077;28;20160;-70
2022/08/24 14:40:02;;;;;;;4.20;2.20;;;;;;;;;;4997750;28;19920;-70
2022/08/24 14:42:38;;;;;;;5.95;2.13;;;;;;;;;;5030376;28;20050;-70
2022/08/24 14:45:38;;;;;;;4.53;2.90;;;;;;;;;;5030551;28;20529;-70
2022/08/24 14:48:56;;;;;;;4.82;2.40;;;;;;;;;;5030444;28;20527;-70
2022/08/24 14:51:53;;;;;;;3.45;2.08;;;;;;;;;;4955293;28;20558;-67
2022/08/24 14:54:33;;;;;;;6.93;2.00;;;;;;;;;;4971565;28;20058;-66
2022/08/24 14:57:25;;;;;;;6.10;2.33;;;;;;;;;;4984880;28;20057;-66
2022/08/24 15:00:13;;;;;;;4.50;2.50;;;;;;;;;;4990738;28;20046;-66
2022/08/24 15:02:47;;;;;;;4.68;2.00;;;;;;;;;;4958465;28;20098;-66
2022/08/24 15:05:35;;;;;;;5.38;2.17;;;;;;;;;;4994159;28;20053;-66
2022/08/24 15:08:11;;;;;;;4.38;2.25;;;;;;;;;;5010302;28;20061;-66
2022/08/24 15:10:56;;;;;;;5.35;2.13;;;;;;;;;;4946566;28;20058;-66
2022/08/24 15:13:39;;;;;;;4.30;2.20;;;;;;;;;;4961633;28;20061;-66
2022/08/24 15:16:13;;;;;;;4.95;2.25;;;;;;;;;;4977338;28;20057;-66
2022/08/24 15:19:01;;;;;;;4.95;2.08;;;;;;;;;;4993961;28;20414;-66
2022/08/24 15:21:50;;;;;;;4.80;2.05;;;;;;;;;;5009773;28;20418;-66
2022/08/24 15:24:41;;;;;;;5.45;2.28;;;;;;;;;;4977271;28;20054;-66
2022/08/24 15:27:47;;;;;;;3.90;2.40;;;;;;;;;;5022053;28;20063;-66
2022/08/24 15:30:29;;;;;;;5.25;2.13;;;;;;;;;;4993264;28;20050;-66
2022/08/24 15:33:14;;;;;;;3.75;1.83;;;;;;;;;;5009959;28;20061;-66
2022/08/24 15:36:04;;;;;;;4.60;2.10;;;;;;;;;;5009956;28;20054;-66
2022/08/24 15:38:38;;;;;;;7.80;2.13;;;;;;;;;;5045845;28;20061;-66
2022/08/24 15:41:19;;;;;;;5.55;2.20;;;;;;;;;;5016541;28;20424;-67
2022/08/24 15:43:59;;;;;;;5.15;2.05;;;;;;;;;;5069220;28;20053;-66
2022/08/24 15:46:37;;;;;;;3.67;1.98;;;;;;;;;;5069470;28;20059;-66
2022/08/24 15:49:33;;;;;;;3.70;2.13;;;;;;;;;;5069580;28;20068;-66
2022/08/24 15:52:08;;;;;;;4.40;2.20;;;;;;;;;;5069331;28;20053;-66
2022/08/24 15:54:45;;;;;;;5.70;2.00;;;;;;;;;;5069659;28;20064;-66
2022/08/24 15:57:18;;;;;;;4.63;2.30;;;;;;;;;;5069589;28;20067;-66
2022/08/24 15:59:51;;;;;;;6.30;2.15;;;;;;;;;;5052767;28;20075;-66
2022/08/24 16:02:31;;;;;;;3.38;1.80;;;;;;;;;;5032779;28;20048;-66
2022/08/24 16:05:15;;;;;;;3.55;2.20;;;;;;;;;;5032552;28;20060;-66
2022/08/24 16:08:08;;;;;;;6.13;2.20;;;;;;;;;;5066545;28;20063;-66
2022/08/24 16:10:43;;;;;;;3.10;1.70;;;;;;;;;;5073115;28;20056;-66
2022/08/24 16:13:20;;;;;;;5.82;2.03;;;;;;;;;;5052638;28;20055;-67